Time;durP1;ratioP1;P1;durP2;ratioP2;P2;SDS_P1;SDS_P2;PMS_P1;PMS_P2;Temp;Humidity;BMP_temperature;BMP_pressure;BME280_temperature;BME280_humidity;BME280_pressure;Samples;Min_cycle;Max_cycle;Signal;HPM_P1;HPM_P2
2023/08/13 00:02:06;;;;;;;;;3.00;3.00;;;;;24.76;44.73;101330.16;4976768;28;45619;-43
2023/08/13 00:04:31;;;;;;;;;4.75;4.75;;;;;24.74;44.60;101324.13;4976444;28;46967;-36
2023/08/13 00:06:56;;;;;;;;;3.00;3.00;;;;;24.75;45.05;101328.47;4976257;28;45395;-38
2023/08/13 00:09:22;;;;;;;;;7.25;3.75;;;;;24.74;44.42;101324.13;4976166;28;50722;-38
2023/08/13 00:11:47;;;;;;;;;5.00;4.00;;;;;24.75;44.96;101323.16;4976668;28;45341;-39
2023/08/13 00:14:13;;;;;;;;;4.00;3.75;;;;;24.74;44.95;101318.81;4976262;28;51363;-44
2023/08/13 00:16:38;;;;;;;;;4.00;4.00;;;;;24.73;44.67;101317.13;4976326;28;45450;-37
2023/08/13 00:19:03;;;;;;;;;4.25;4.00;;;;;24.74;44.75;101324.97;4976342;28;45461;-39
2023/08/13 00:21:29;;;;;;;;;6.25;4.00;;;;;24.72;44.93;101315.41;4976618;28;45548;-38
2023/08/13 00:23:54;;;;;;;;;4.00;3.00;;;;;24.74;44.76;101313.53;4976019;28;45393;-49
2023/08/13 00:26:19;;;;;;;;;3.00;3.00;;;;;24.73;44.84;101317.13;4975949;28;45464;-52
2023/08/13 00:28:45;;;;;;;;;3.75;3.50;;;;;24.72;45.03;101312.75;4976605;28;45447;-52
2023/08/13 00:31:10;;;;;;;;;4.00;3.50;;;;;24.71;44.56;101311.91;4976883;28;45480;-36
2023/08/13 00:33:35;;;;;;;;;4.00;3.50;;;;;24.70;44.68;101311.06;4976061;28;46674;-36
2023/08/13 00:36:01;;;;;;;;;4.00;3.25;;;;;24.71;45.21;101309.25;4976064;28;45304;-38
2023/08/13 00:38:26;;;;;;;;;3.25;3.25;;;;;24.70;45.01;101305.75;4976198;28;45365;-36
2023/08/13 00:40:51;;;;;;;;;5.00;3.75;;;;;24.72;45.07;101302.16;4975015;28;45484;-43
2023/08/13 00:43:17;;;;;;;;;5.25;3.00;;;;;24.70;44.82;101303.09;4978679;28;45745;-42
2023/08/13 00:45:43;;;;;;;;;7.00;4.00;;;;;24.71;45.32;101301.28;4979142;28;45267;-47
2023/08/13 00:48:09;;;;;;;;;3.50;3.50;;;;;24.70;44.75;101299.59;4979450;28;45327;-38
2023/08/13 00:50:35;;;;;;;;;2.00;2.00;;;;;24.68;44.62;101299.69;4979677;28;45397;-43
2023/08/13 00:53:03;;;;;;;;;5.00;3.25;;;;;24.69;45.43;101293.47;4979274;28;45239;-44
2023/08/13 00:55:29;;;;;;;;;3.25;3.25;;;;;24.68;44.69;101296.19;4961702;28;45491;-37
2023/08/13 00:57:54;;;;;;;;;4.00;3.25;;;;;24.68;45.01;101298.84;4979076;28;45366;-39
2023/08/13 01:00:21;;;;;;;;;3.00;3.00;;;;;24.68;44.94;101297.06;4979420;28;45588;-45
2023/08/13 01:02:48;;;;;;;;;3.75;3.75;;;;;24.68;45.36;101297.06;4979379;28;47168;-38
2023/08/13 01:05:14;;;;;;;;;3.25;2.75;;;;;24.67;45.19;101291.84;4979468;28;45747;-37
2023/08/13 01:08:09;;;;;;;;;5.50;3.00;;;;;24.68;44.66;101299.69;4979095;28;45388;-38
2023/08/13 01:10:36;;;;;;;;;4.00;4.00;;;;;24.68;45.05;101297.06;4961812;28;45455;-37
2023/08/13 01:13:09;;;;;;;;;4.00;4.00;;;;;24.68;45.47;101290.88;4977227;28;46629;-43
2023/08/13 01:15:40;;;;;;;;;3.75;3.00;;;;;24.67;45.15;101292.66;4979048;28;45251;-40
2023/08/13 01:18:07;;;;;;;;;2.75;2.25;;;;;24.66;44.72;101287.47;4979041;28;45401;-46
2023/08/13 01:20:35;;;;;;;;;3.00;3.00;;;;;24.68;45.13;101302.34;4979331;28;45266;-51
2023/08/13 01:23:01;;;;;;;;;2.50;2.50;;;;;24.66;45.03;101298.09;4978578;28;45293;-47
2023/08/13 01:25:27;;;;;;;;;3.00;3.00;;;;;24.67;45.35;101297.13;4978877;28;45460;-45
2023/08/13 01:28:31;;;;;;;;;1.00;1.00;;;;;24.66;45.36;101298.91;4978824;28;45861;-55
2023/08/13 01:31:20;;;;;;;;;3.00;3.00;;;;;24.66;45.49;101293.63;4977724;28;45429;-53
2023/08/13 01:33:47;;;;;;;;;3.75;3.75;;;;;24.66;45.10;101292.78;4978911;28;45345;-66
2023/08/13 01:36:16;;;;;;;;;3.00;2.25;;;;;24.65;45.18;101281.31;4978552;28;45247;-56
2023/08/13 01:38:43;;;;;;;;;3.00;3.00;;;;;24.65;45.18;101286.63;4978874;28;45305;-57
2023/08/13 01:41:08;;;;;;;;;3.00;3.00;;;;;24.64;45.33;101292.88;4978906;28;45480;-45
2023/08/13 01:43:34;;;;;;;;;5.00;3.00;;;;;24.65;44.84;101289.25;4978513;28;45484;-37
2023/08/13 01:46:01;;;;;;;;;6.00;3.00;;;;;24.64;45.43;101287.56;4978505;28;45698;-48
2023/08/13 01:48:27;;;;;;;;;4.25;4.00;;;;;24.63;45.25;101277.06;4978662;28;45420;-59
2023/08/13 01:50:52;;;;;;;;;3.00;1.75;;;;;24.65;45.45;101285.78;4978768;28;45323;-53
2023/08/13 01:53:17;;;;;;;;;2.00;2.00;;;;;24.65;45.49;101285.78;4978261;28;53872;-42
2023/08/13 01:55:43;;;;;;;;;3.75;2.25;;;;;24.65;44.99;101289.25;4978339;28;45249;-57
2023/08/13 01:58:10;;;;;;;;;4.50;3.00;;;;;24.64;45.21;101284.91;4978470;28;45242;-53
2023/08/13 02:00:35;;;;;;;;;3.00;3.00;;;;;24.63;44.93;101288.53;4978599;28;45535;-61
2023/08/13 02:03:00;;;;;;;;;3.50;2.25;;;;;24.64;45.45;101282.25;4978174;28;46579;-65
2023/08/13 02:05:26;;;;;;;;;3.00;2.25;;;;;24.64;45.54;101284.06;4978035;28;45810;-65
2023/08/13 02:07:51;;;;;;;;;6.75;3.25;;;;;24.64;44.91;101286.72;4978235;28;45216;-47
2023/08/13 02:10:17;;;;;;;;;5.00;3.50;;;;;24.63;45.53;101283.25;4977386;28;45650;-42
2023/08/13 02:12:42;;;;;;;;;2.25;2.00;;;;;24.62;45.26;101281.53;4976354;28;46242;-36
2023/08/13 02:15:08;;;;;;;;;2.00;2.00;;;;;24.63;45.06;101280.59;4977845;28;45420;-39
2023/08/13 02:17:33;;;;;;;;;2.00;2.00;;;;;24.64;45.42;101286.72;4978172;28;45436;-42
2023/08/13 02:19:59;;;;;;;;;2.00;2.00;;;;;24.63;44.95;101291.19;4978154;28;45417;-43
2023/08/13 02:22:24;;;;;;;;;3.00;3.00;;;;;24.63;45.47;101296.50;4977931;28;47259;-37
2023/08/13 02:24:49;;;;;;;;;1.00;1.00;;;;;24.63;45.19;101295.63;4978199;28;45623;-37
2023/08/13 02:27:15;;;;;;;;;2.75;2.75;;;;;24.62;45.07;101291.28;4977996;28;45395;-38
2023/08/13 02:29:40;;;;;;;;;2.00;2.00;;;;;24.61;44.93;101290.44;4977773;28;45529;-36
2023/08/13 02:32:05;;;;;;;;;5.00;2.00;;;;;24.62;45.38;101289.50;4977694;28;45446;-36
2023/08/13 02:34:33;;;;;;;;;4.25;2.00;;;;;24.63;45.64;101285.03;4977698;28;45269;-38
2023/08/13 02:36:59;;;;;;;;;2.00;2.00;;;;;24.62;45.64;101276.25;4977806;28;45310;-43
2023/08/13 02:39:24;;;;;;;;;4.25;3.00;;;;;24.61;45.14;101274.53;4977934;28;45702;-45
2023/08/13 02:41:50;;;;;;;;;3.25;3.00;;;;;24.61;45.13;101281.63;4977914;28;45270;-36
2023/08/13 02:44:15;;;;;;;;;3.67;2.00;;;;;24.61;45.14;101277.19;4976773;28;66240;-44
2023/08/13 02:46:40;;;;;;;;;2.00;2.00;;;;;24.59;45.17;101271.13;4977801;28;45183;-43
2023/08/13 02:49:06;;;;;;;;;4.25;3.00;;;;;24.61;45.52;101273.66;4976593;28;45484;-49
2023/08/13 02:51:31;;;;;;;;;3.25;2.00;;;;;24.59;45.74;101273.78;4977163;28;51578;-39
2023/08/13 02:53:56;;;;;;;;;4.00;3.00;;;;;24.60;45.48;101269.31;4977411;28;45296;-37
2023/08/13 02:56:22;;;;;;;;;2.00;2.00;;;;;24.59;45.49;101273.78;4977876;28;45555;-38
2023/08/13 02:58:47;;;;;;;;;3.25;2.50;;;;;24.58;45.53;101261.47;4977524;28;45252;-37
2023/08/13 03:01:13;;;;;;;;;1.50;1.25;;;;;24.60;45.33;101266.66;4976720;28;59535;-37
2023/08/13 03:03:38;;;;;;;;;2.00;2.00;;;;;24.58;45.69;101263.28;4977410;28;45410;-37
2023/08/13 03:06:03;;;;;;;;;5.00;3.50;;;;;24.57;45.23;101253.63;4976900;28;45372;-36
2023/08/13 03:08:29;;;;;;;;;5.75;3.25;;;;;24.57;45.10;101270.38;4977470;28;45417;-47
2023/08/13 03:10:54;;;;;;;;;4.50;2.50;;;;;24.56;45.69;101263.38;4977067;28;45372;-45
2023/08/13 03:13:20;;;;;;;;;4.50;3.25;;;;;24.56;45.65;101255.44;4976713;28;60364;-40
2023/08/13 03:15:45;;;;;;;;;3.00;3.00;;;;;24.57;45.63;101256.28;4976625;28;45405;-42
2023/08/13 03:18:11;;;;;;;;;2.00;2.00;;;;;24.57;45.33;101257.13;4977339;28;45399;-37
2023/08/13 03:20:36;;;;;;;;;2.00;2.00;;;;;24.55;45.46;101253.72;4977118;28;46178;-38
2023/08/13 03:23:02;;;;;;;;;3.75;2.00;;;;;24.55;45.78;101253.72;4977021;28;45275;-36
2023/08/13 03:25:29;;;;;;;;;3.00;1.75;;;;;24.56;45.82;101255.44;4976676;28;45424;-37
2023/08/13 03:27:54;;;;;;;;;3.75;2.75;;;;;24.56;45.46;101252.78;4977503;28;45397;-37
2023/08/13 03:30:20;;;;;;;;;2.00;1.00;;;;;24.55;45.50;101254.59;4977387;28;45256;-35
2023/08/13 03:32:45;;;;;;;;;3.50;3.50;;;;;24.55;45.31;101264.31;4976980;28;45338;-38
2023/08/13 03:35:10;;;;;;;;;4.75;3.00;;;;;24.54;45.93;101258.19;4976666;28;47875;-36
2023/08/13 03:37:36;;;;;;;;;3.00;2.00;;;;;24.52;45.43;101262.72;4976553;28;50801;-35
2023/08/13 03:40:01;;;;;;;;;2.25;2.00;;;;;24.52;45.59;101259.25;4976825;28;45364;-46
2023/08/13 03:42:26;;;;;;;;;4.00;2.00;;;;;24.52;45.27;101262.72;4976801;28;45315;-40
2023/08/13 03:44:52;;;;;;;;;2.75;1.50;;;;;24.52;46.10;101267.19;4976766;28;52782;-53
2023/08/13 03:47:17;;;;;;;;;4.00;3.00;;;;;24.52;45.91;101267.19;4976880;28;45334;-57
2023/08/13 03:49:42;;;;;;;;;2.00;2.00;;;;;24.51;45.51;101262.84;4976090;28;59343;-54
2023/08/13 03:52:09;;;;;;;;;3.50;2.00;;;;;24.50;45.97;101261.97;4976675;28;45419;-54
2023/08/13 03:54:35;;;;;;;;;3.50;2.00;;;;;24.49;45.79;101256.78;4976669;28;45547;-36
2023/08/13 03:57:00;;;;;;;;;4.00;2.25;;;;;24.50;45.40;101254.03;4976834;28;45612;-38
2023/08/13 03:59:26;;;;;;;;;5.50;3.25;;;;;24.49;46.16;101251.50;4976767;28;45265;-36
2023/08/13 04:01:51;;;;;;;;;3.75;2.75;;;;;24.48;45.86;101258.56;4976549;28;45401;-37
2023/08/13 04:04:16;;;;;;;;;2.50;2.00;;;;;24.49;45.77;101259.44;4976515;28;45800;-35
2023/08/13 04:06:43;;;;;;;;;2.00;2.00;;;;;24.49;46.17;101259.44;4976747;28;45481;-36
2023/08/13 04:09:09;;;;;;;;;2.00;2.00;;;;;24.47;45.78;101259.56;4976362;28;47018;-38
2023/08/13 04:11:34;;;;;;;;;4.25;2.75;;;;;24.48;45.60;101258.56;4976524;28;45214;-39
2023/08/13 04:13:59;;;;;;;;;5.50;2.75;;;;;24.49;46.25;101260.28;4976527;28;45283;-35
2023/08/13 04:16:24;;;;;;;;;3.75;2.00;;;;;24.48;45.60;101261.22;4977085;28;45293;-36
2023/08/13 04:18:50;;;;;;;;;2.25;2.25;;;;;24.48;45.77;101263.88;4979818;28;46425;-36
2023/08/13 04:21:16;;;;;;;;;2.75;2.00;;;;;24.48;45.76;101268.34;4980014;28;45356;-37
2023/08/13 04:23:41;;;;;;;;;1.75;1.75;;;;;24.49;46.48;101267.38;4979958;28;45334;-35
2023/08/13 04:26:06;;;;;;;;;3.00;2.00;;;;;24.49;46.21;101264.75;4979698;28;45600;-62
2023/08/13 04:28:32;;;;;;;;;2.50;1.75;;;;;24.49;45.95;101270.03;4978246;28;53796;-64
2023/08/13 04:30:58;;;;;;;;;3.00;2.00;;;;;24.46;46.13;101270.22;4980006;28;45404;-40
2023/08/13 04:33:23;;;;;;;;;1.25;1.00;;;;;24.47;46.23;101271.94;4979780;28;45375;-37
2023/08/13 04:35:52;;;;;;;;;3.50;2.00;;;;;24.47;46.25;101266.63;4978132;28;46971;-35
2023/08/13 04:38:18;;;;;;;;;3.00;1.75;;;;;24.45;46.63;101264.09;4979425;28;46764;-41
2023/08/13 04:40:49;;;;;;;;;4.00;2.00;;;;;24.46;46.19;101268.44;4978927;28;59493;-42
2023/08/13 04:43:16;;;;;;;;;2.00;2.00;;;;;24.46;46.69;101268.44;4979131;28;45329;-36
2023/08/13 04:45:45;;;;;;;;;2.00;2.00;;;;;24.45;46.81;101265.88;4979881;28;45588;-40
2023/08/13 04:48:11;;;;;;;;;2.50;2.50;;;;;24.45;46.18;101266.75;4979320;28;46250;-36
2023/08/13 04:50:36;;;;;;;;;3.25;2.00;;;;;24.45;46.89;101263.22;4979400;28;47921;-35
2023/08/13 04:53:01;;;;;;;;;3.00;2.25;;;;;24.45;46.47;101265.88;4977957;28;49362;-36
2023/08/13 04:55:26;;;;;;;;;4.50;1.75;;;;;24.45;46.81;101263.22;4979939;28;45343;-36
2023/08/13 04:57:52;;;;;;;;;3.25;1.25;;;;;24.46;46.37;101270.22;4979271;28;47322;-39
2023/08/13 05:00:17;;;;;;;;;3.00;1.25;;;;;24.45;46.97;101266.75;4979171;28;45449;-36
2023/08/13 05:02:42;;;;;;;;;2.25;2.25;;;;;24.45;46.83;101273.81;4979470;28;45378;-36
2023/08/13 05:05:08;;;;;;;;;2.00;2.00;;;;;24.45;47.01;101265.88;4979410;28;45592;-46
2023/08/13 05:07:33;;;;;;;;;2.75;1.50;;;;;24.45;46.33;101268.53;4979208;28;46697;-49
2023/08/13 05:09:58;;;;;;;;;2.00;2.00;;;;;24.43;46.29;101268.63;4979410;28;45420;-44
2023/08/13 05:12:24;;;;;;;;;2.00;2.00;;;;;24.45;46.32;101268.53;4979167;28;45374;-49
2023/08/13 05:14:49;;;;;;;;;3.00;3.00;;;;;24.43;46.24;101268.63;4979229;28;45302;-40
2023/08/13 05:17:21;;;;;;;;;4.75;1.25;;;;;24.42;46.86;101261.63;4978244;28;62549;-38
2023/08/13 05:19:47;;;;;;;;;2.50;2.50;;;;;24.43;46.89;101267.78;4978924;28;45445;-42
2023/08/13 05:22:13;;;;;;;;;1.25;1.25;;;;;24.41;46.84;101262.59;4979055;28;45493;-47
2023/08/13 05:24:38;;;;;;;;;4.50;2.50;;;;;24.43;46.84;101270.44;4979229;28;45306;-42
2023/08/13 05:27:04;;;;;;;;;3.00;1.75;;;;;24.41;46.84;101270.53;4978579;28;46135;-38
2023/08/13 05:29:29;;;;;;;;;3.50;2.50;;;;;24.41;46.47;101261.75;4979069;28;45374;-36
2023/08/13 05:31:54;;;;;;;;;2.00;2.00;;;;;24.41;46.90;101267.88;4961539;28;45368;-43
2023/08/13 05:34:20;;;;;;;;;2.00;2.00;;;;;24.41;46.98;101265.22;4978974;28;45322;-42
2023/08/13 05:36:45;;;;;;;;;2.00;2.00;;;;;24.41;46.98;101261.75;4978645;28;46090;-41
2023/08/13 05:39:11;;;;;;;;;2.00;2.00;;;;;24.42;46.38;101263.44;4978752;28;45393;-39
2023/08/13 05:41:36;;;;;;;;;5.00;2.00;;;;;24.41;46.96;101264.41;4978847;28;45525;-66
2023/08/13 05:44:02;;;;;;;;;2.75;2.75;;;;;24.41;46.41;101272.34;4979236;28;45360;-63
2023/08/13 05:46:27;;;;;;;;;1.50;1.00;;;;;24.39;46.41;101273.28;4978488;28;46458;-60
2023/08/13 05:48:53;;;;;;;;;1.25;1.25;;;;;24.41;46.74;101280.28;4960923;28;52002;-63
2023/08/13 05:51:18;;;;;;;;;5.25;2.50;;;;;24.41;46.85;101273.19;4978176;28;53731;-64
2023/08/13 05:53:43;;;;;;;;;3.25;2.00;;;;;24.40;47.06;101276.78;4978661;28;45310;-65
2023/08/13 05:56:08;;;;;;;;;3.50;2.50;;;;;24.42;46.48;101279.34;4976571;28;58572;-60
2023/08/13 05:58:34;;;;;;;;;1.00;1.00;;;;;24.41;46.85;101278.47;4978380;28;51692;-45
2023/08/13 06:01:00;;;;;;;;;3.00;2.00;;;;;24.38;46.49;101268.94;4978970;28;45391;-54
2023/08/13 06:03:25;;;;;;;;;2.75;2.00;;;;;24.40;46.79;101279.44;4978685;28;45182;-63
2023/08/13 06:05:50;;;;;;;;;4.25;1.00;;;;;24.39;46.42;101294.50;4978060;28;47227;-40
2023/08/13 06:08:16;;;;;;;;;2.00;1.00;;;;;24.41;46.86;101298.84;4978124;28;45458;-37
2023/08/13 06:10:41;;;;;;;;;2.25;2.00;;;;;24.39;46.78;101293.63;4978251;28;45414;-43
2023/08/13 06:13:07;;;;;;;;;2.00;1.00;;;;;24.38;47.02;101292.78;4978472;28;45338;-47
2023/08/13 06:15:32;;;;;;;;;2.00;2.00;;;;;24.39;46.51;101291.84;4977044;28;46498;-53
2023/08/13 06:17:57;;;;;;;;;2.75;2.75;;;;;24.39;46.42;101289.19;4977544;28;55837;-50
2023/08/13 06:20:23;;;;;;;;;2.25;2.25;;;;;24.38;46.66;101297.22;4978232;28;45577;-46
2023/08/13 06:22:49;;;;;;;;;1.50;1.50;;;;;24.39;47.09;101299.78;4978303;28;45507;-54
2023/08/13 06:25:14;;;;;;;;;3.25;2.25;;;;;24.40;46.35;101295.31;4976545;28;45989;-49
2023/08/13 06:27:39;;;;;;;;;2.00;1.00;;;;;24.41;46.62;101296.19;4977981;28;45395;-44
2023/08/13 06:30:06;;;;;;;;;4.00;1.50;;;;;24.41;46.40;101301.50;4978324;28;45421;-41
2023/08/13 06:32:31;;;;;;;;;2.25;2.25;;;;;24.39;46.77;101297.13;4978557;28;45321;-52
2023/08/13 06:34:57;;;;;;;;;2.00;2.00;;;;;24.41;47.06;101302.31;4977828;28;45979;-44
2023/08/13 06:37:22;;;;;;;;;1.00;1.00;;;;;24.41;46.94;101296.19;4977856;28;45442;-48
2023/08/13 06:39:48;;;;;;;;;2.00;2.00;;;;;24.41;46.84;101293.53;4976951;28;45350;-37
2023/08/13 06:42:13;;;;;;;;;3.50;2.00;;;;;24.39;46.78;101291.84;4977971;28;45648;-39
2023/08/13 06:44:38;;;;;;;;;6.25;2.25;;;;;24.39;46.81;101296.28;4977111;28;60331;-45
2023/08/13 06:47:04;;;;;;;;;2.75;1.25;;;;;24.38;47.12;101290.13;4978041;28;45211;-47
2023/08/13 06:49:29;;;;;;;;;2.00;2.00;;;;;24.38;46.65;101297.22;4977742;28;45278;-41
2023/08/13 06:51:55;;;;;;;;;1.50;1.50;;;;;24.37;47.00;101293.72;4977859;28;45656;-37
2023/08/13 06:54:20;;;;;;;;;3.50;2.00;;;;;24.38;47.17;101300.72;4977380;28;46157;-38
2023/08/13 06:56:45;;;;;;;;;2.25;2.25;;;;;24.39;47.20;101302.44;4977267;28;50735;-37
2023/08/13 06:59:11;;;;;;;;;4.00;2.00;;;;;24.39;47.14;101298.91;4977732;28;45358;-44
2023/08/13 07:01:37;;;;;;;;;1.50;1.50;;;;;24.41;46.51;101298.84;4976773;28;45309;-37
2023/08/13 07:04:02;;;;;;;;;3.00;3.00;;;;;24.42;46.63;101305.84;4983161;28;46327;-48
2023/08/13 07:06:28;;;;;;;;;4.25;3.00;;;;;24.42;46.82;101300.53;4996370;28;45410;-36
2023/08/13 07:08:53;;;;;;;;;2.00;1.50;;;;;24.43;46.50;101292.47;4997121;28;45937;-37
2023/08/13 07:11:18;;;;;;;;;2.00;2.00;;;;;24.46;46.57;101302.03;4997293;28;45397;-53
2023/08/13 07:13:44;;;;;;;;;4.00;2.25;;;;;24.46;46.64;101307.31;4996157;28;60433;-43
2023/08/13 07:16:11;;;;;;;;;4.50;3.00;;;;;24.47;47.11;101307.25;4995448;28;45516;-42
2023/08/13 07:18:36;;;;;;;;;3.00;1.50;;;;;24.48;47.17;101294.84;4997344;28;45500;-49
2023/08/13 07:21:04;;;;;;;;;2.25;2.25;;;;;24.49;46.96;101310.63;4996931;28;45353;-37
2023/08/13 07:23:29;;;;;;;;;2.50;2.00;;;;;24.49;46.53;101297.38;4996538;28;46517;-51
2023/08/13 07:25:54;;;;;;;;;4.75;3.00;;;;;24.50;46.88;101295.59;4996650;28;45231;-46
2023/08/13 07:28:20;;;;;;;;;2.75;1.00;;;;;24.50;46.97;101298.25;4996754;28;45381;-53
2023/08/13 07:30:47;;;;;;;;;1.00;1.00;;;;;24.49;46.47;101293.88;4996781;28;45203;-57
2023/08/13 07:33:12;;;;;;;;;2.25;2.00;;;;;24.50;46.31;101303.53;4996469;28;47087;-51
2023/08/13 07:35:39;;;;;;;;;2.25;2.00;;;;;24.51;46.28;101294.63;4996705;28;45462;-36
2023/08/13 07:38:04;;;;;;;;;3.00;3.00;;;;;24.51;46.85;101308.72;4996553;28;45360;-37
2023/08/13 07:40:29;;;;;;;;;2.75;2.00;;;;;24.50;46.39;101295.59;4996605;28;45281;-44
2023/08/13 07:42:58;;;;;;;;;3.50;2.50;;;;;24.52;46.75;101304.28;4996324;28;47074;-50
2023/08/13 07:45:24;;;;;;;;;1.50;1.50;;;;;24.53;46.12;101298.00;4978668;28;45699;-36
2023/08/13 07:47:49;;;;;;;;;2.50;2.00;;;;;24.53;46.24;101295.38;4996453;28;45349;-38
2023/08/13 07:50:15;;;;;;;;;2.50;2.00;;;;;24.55;46.71;101293.47;4996593;28;45176;-42
2023/08/13 07:52:42;;;;;;;;;2.00;2.00;;;;;24.56;46.76;101287.22;4996409;28;45343;-51
2023/08/13 07:55:07;;;;;;;;;2.50;2.25;;;;;24.57;46.29;101290.75;4996589;28;45211;-41
2023/08/13 07:57:33;;;;;;;;;2.00;2.00;;;;;24.57;46.01;101294.22;4996483;28;45328;-53
2023/08/13 07:59:59;;;;;;;;;1.25;1.00;;;;;24.57;46.00;101294.22;4996625;28;45382;-42
2023/08/13 08:02:24;;;;;;;;;2.50;2.00;;;;;24.57;45.87;101294.22;4996082;28;45448;-41
2023/08/13 08:04:49;;;;;;;;;1.00;1.00;;;;;24.58;45.94;101289.78;4996005;28;45257;-51
2023/08/13 08:07:14;;;;;;;;;2.00;2.00;;;;;24.57;46.36;101288.94;4996296;28;45367;-48
2023/08/13 08:09:40;;;;;;;;;1.00;1.00;;;;;24.58;46.39;101290.63;4995214;28;50481;-60
2023/08/13 08:12:05;;;;;;;;;2.00;1.00;;;;;24.59;46.22;101291.47;4995941;28;47897;-43
2023/08/13 08:14:30;;;;;;;;;3.00;1.50;;;;;24.59;46.31;101292.34;4995968;28;45396;-62
2023/08/13 08:17:00;;;;;;;;;2.50;2.00;;;;;24.59;45.86;101291.47;4996304;28;45309;-62
2023/08/13 08:19:25;;;;;;;;;1.75;1.00;;;;;24.60;46.22;101294.03;4996068;28;45373;-43
2023/08/13 08:21:50;;;;;;;;;4.75;2.25;;;;;24.60;46.24;101290.50;4995753;28;46482;-49
2023/08/13 08:24:16;;;;;;;;;0.25;0.25;;;;;24.62;45.85;101296.56;4995916;28;45175;-49
2023/08/13 08:26:41;;;;;;;;;2.50;1.00;;;;;24.61;45.79;101294.88;4996218;28;45234;-49
2023/08/13 08:29:06;;;;;;;;;2.00;1.25;;;;;24.62;46.08;101292.13;4996186;28;45412;-50
2023/08/13 08:31:32;;;;;;;;;1.25;1.25;;;;;24.62;46.17;101286.84;4995690;28;46175;-48
2023/08/13 08:33:57;;;;;;;;;3.50;2.00;;;;;24.60;45.77;101288.72;4995513;28;48855;-54
2023/08/13 08:36:22;;;;;;;;;2.50;1.00;;;;;24.62;46.28;101291.28;4995643;28;45472;-54
2023/08/13 08:38:47;;;;;;;;;3.00;1.00;;;;;24.62;46.21;101292.13;4995975;28;45416;-36
2023/08/13 08:41:15;;;;;;;;;2.50;1.00;;;;;24.63;45.62;101287.69;4995357;28;63508;-42
2023/08/13 08:43:42;;;;;;;;;2.75;1.75;;;;;24.63;45.97;101288.53;4996019;28;45719;-41
2023/08/13 08:46:10;;;;;;;;;3.00;1.00;;;;;24.63;45.70;101282.38;4995867;28;45305;-39
2023/08/13 08:48:36;;;;;;;;;1.00;1.00;;;;;24.63;45.49;101283.25;4995979;28;45463;-36
2023/08/13 08:51:02;;;;;;;;;0.50;0.50;;;;;24.63;45.76;101272.63;4995481;28;46618;-41
2023/08/13 08:53:27;;;;;;;;;2.75;1.50;;;;;24.63;45.32;101275.28;4995586;28;45432;-40
2023/08/13 08:55:53;;;;;;;;;1.00;1.00;;;;;24.64;45.36;101269.00;4994307;28;45436;-37
2023/08/13 08:58:18;;;;;;;;;2.00;1.00;;;;;24.65;45.32;101275.19;4995822;28;45278;-38
2023/08/13 09:00:44;;;;;;;;;3.00;1.50;;;;;24.64;45.90;101274.31;4995675;28;46401;-46
2023/08/13 09:03:10;;;;;;;;;1.00;1.00;;;;;24.64;45.54;101276.13;4996971;28;45857;-37
2023/08/13 09:05:38;;;;;;;;;1.00;1.00;;;;;24.63;45.16;101280.59;4998807;28;45360;-45
2023/08/13 09:08:13;;;;;;;;;5.00;1.25;;;;;24.63;45.10;101277.94;4998913;28;45463;-38
2023/08/13 09:10:42;;;;;;;;;3.00;1.00;;;;;24.63;45.08;101283.25;4998524;28;47054;-51
2023/08/13 09:13:08;;;;;;;;;1.00;1.00;;;;;24.62;45.33;101289.50;4998530;28;45933;-59
2023/08/13 09:15:33;;;;;;;;;1.00;1.00;;;;;24.63;45.10;101277.94;4998772;28;45352;-56
2023/08/13 09:17:59;;;;;;;;;0.25;0.25;;;;;24.63;45.85;101287.69;4998908;28;45393;-50
2023/08/13 09:20:25;;;;;;;;;2.25;1.00;;;;;24.62;45.57;101284.19;4998500;28;46121;-53
2023/08/13 09:22:50;;;;;;;;;0.25;0.25;;;;;24.62;44.96;101286.84;4998352;28;46544;-59
2023/08/13 09:25:18;;;;;;;;;0.25;0.00;;;;;24.63;45.00;101285.88;4998958;28;45241;-48
2023/08/13 09:27:45;;;;;;;;;1.75;0.00;;;;;24.62;45.54;101276.25;4999096;28;45452;-58
2023/08/13 09:30:12;;;;;;;;;1.00;1.00;;;;;24.63;45.58;101282.38;4998346;28;47041;-37
2023/08/13 09:32:38;;;;;;;;;2.00;1.00;;;;;24.64;45.23;101286.72;4998341;28;45315;-36
2023/08/13 09:35:04;;;;;;;;;0.50;0.50;;;;;24.65;44.88;101278.66;4998464;28;45484;-37
2023/08/13 09:37:29;;;;;;;;;2.00;1.00;;;;;24.67;45.55;101281.22;4998650;28;45465;-35
2023/08/13 09:39:55;;;;;;;;;2.75;0.00;;;;;24.67;45.42;101274.13;4996998;28;47380;-37
2023/08/13 09:42:25;;;;;;;;;0.75;0.75;;;;;24.68;45.34;101267.03;4998224;28;45536;-39
2023/08/13 09:44:56;;;;;;;;;0.00;0.00;;;;;24.68;44.53;101265.25;4998414;28;45490;-35
2023/08/13 09:47:25;;;;;;;;;1.00;1.00;;;;;24.68;44.91;101265.25;4998494;28;45368;-36
2023/08/13 09:49:52;;;;;;;;;0.00;0.00;;;;;24.67;44.69;101258.22;4998104;28;47036;-37
2023/08/13 09:52:22;;;;;;;;;1.25;0.00;;;;;24.67;43.99;101268.81;4998090;28;45439;-39
2023/08/13 09:54:56;;;;;;;;;0.00;0.00;;;;;24.67;43.84;101260.88;4998365;28;45380;-36
2023/08/13 09:57:22;;;;;;;;;1.00;0.00;;;;;24.67;44.48;101255.56;4998438;28;45554;-44
2023/08/13 09:59:49;;;;;;;;;1.00;1.00;;;;;24.67;44.29;101263.50;4998340;28;45271;-50
2023/08/13 10:02:14;;;;;;;;;0.75;0.75;;;;;24.66;44.30;101255.69;4998290;28;45294;-46
2023/08/13 10:04:41;;;;;;;;;0.25;0.25;;;;;24.67;43.94;101257.38;4998108;28;45187;-47
2023/08/13 10:07:07;;;;;;;;;0.50;0.50;;;;;24.67;44.39;101255.56;4998060;28;45690;-39
2023/08/13 10:09:34;;;;;;;;;0.25;0.00;;;;;24.66;44.34;101256.50;4997549;28;46253;-55
2023/08/13 10:12:01;;;;;;;;;1.75;0.00;;;;;24.69;44.40;101258.16;4997476;28;45412;-51
2023/08/13 10:14:28;;;;;;;;;0.00;0.00;;;;;24.69;44.32;101258.16;4988133;28;45372;-53
2023/08/13 10:16:53;;;;;;;;;0.75;0.75;;;;;24.70;44.07;101260.69;4977410;28;45463;-45
2023/08/13 10:19:19;;;;;;;;;1.00;1.00;;;;;24.69;44.31;101256.34;4977203;28;46195;-44
2023/08/13 10:21:55;;;;;;;;;1.00;1.00;;;;;24.72;44.11;101257.09;4977007;28;45464;-52
2023/08/13 10:24:22;;;;;;;;;0.00;0.00;;;;;24.74;44.35;101261.34;4958375;28;45346;-52
2023/08/13 10:26:47;;;;;;;;;3.00;1.00;;;;;24.76;44.28;101256.78;4958649;28;45273;-44
2023/08/13 10:29:17;;;;;;;;;0.00;0.00;;;;;24.77;43.84;101262.94;4958209;28;46767;-50
2023/08/13 10:32:09;;;;;;;;;1.25;1.25;;;;;24.77;44.54;101254.97;4958221;28;45419;-55
2023/08/13 10:34:46;;;;;;;;;1.25;0.25;;;;;24.78;43.84;101248.72;4958233;28;45400;-50
2023/08/13 10:37:19;;;;;;;;;0.25;0.25;;;;;24.77;43.94;101247.88;4958431;28;45571;-54
2023/08/13 10:39:47;;;;;;;;;0.00;0.00;;;;;24.79;44.01;101250.44;4956731;28;47123;-48
2023/08/13 10:42:28;;;;;;;;;0.25;0.25;;;;;24.79;44.07;101242.47;4958170;28;45368;-42
2023/08/13 10:45:01;;;;;;;;;1.00;1.00;;;;;24.79;44.02;101243.34;4958203;28;45398;-54
2023/08/13 10:47:56;;;;;;;;;1.00;1.00;;;;;24.80;44.19;101241.53;4958359;28;45382;-54
2023/08/13 10:50:30;;;;;;;;;2.00;1.00;;;;;24.80;43.97;101246.81;4957918;28;47114;-39
2023/08/13 10:53:10;;;;;;;;;1.00;1.00;;;;;24.79;44.00;101246.00;4958115;28;45330;-39
2023/08/13 10:55:49;;;;;;;;;2.50;0.50;;;;;24.80;44.42;101244.19;4957996;28;45365;-36
2023/08/13 10:58:30;;;;;;;;;1.25;0.25;;;;;24.80;43.87;101234.44;4958135;28;45438;-39
2023/08/13 11:01:09;;;;;;;;;0.50;0.50;;;;;24.81;44.53;101232.63;4957868;28;46296;-41
2023/08/13 11:03:43;;;;;;;;;1.75;1.75;;;;;24.81;44.11;101237.91;4957659;28;45318;-41
2023/08/13 11:06:08;;;;;;;;;1.00;1.00;;;;;24.81;44.72;101238.75;4957749;28;45378;-41
2023/08/13 11:08:37;;;;;;;;;1.00;1.00;;;;;24.81;44.24;101228.16;4957926;28;45630;-39
2023/08/13 11:11:03;;;;;;;;;1.00;1.00;;;;;24.83;44.46;101236.03;4957637;28;46550;-40
2023/08/13 11:13:29;;;;;;;;;1.00;1.00;;;;;24.82;43.91;101224.56;4957640;28;45364;-41
2023/08/13 11:15:55;;;;;;;;;1.00;1.00;;;;;24.85;43.88;101236.78;4957693;28;45401;-35
2023/08/13 11:18:21;;;;;;;;;0.00;0.00;;;;;24.83;44.20;101230.72;4958200;28;45515;-38
2023/08/13 11:20:48;;;;;;;;;0.00;0.00;;;;;24.84;44.08;101221.81;4957270;28;46180;-36
2023/08/13 11:23:15;;;;;;;;;1.00;1.00;;;;;24.83;43.63;101228.06;4957454;28;45237;-36